sensor_id;sensor_type;location;lat;lon;timestamp;temperature;humidity
15355;DHT22;7777;52.254;9.618;2022-09-27T00:00:39;11.70;99.90
15355;DHT22;7777;52.254;9.618;2022-09-27T00:03:09;11.60;99.90
15355;DHT22;7777;52.254;9.618;2022-09-27T00:05:35;11.60;99.90
15355;DHT22;7777;52.254;9.618;2022-09-27T00:08:01;11.70;99.90
15355;DHT22;7777;52.254;9.618;2022-09-27T00:10:26;11.60;99.90
15355;DHT22;7777;52.254;9.618;2022-09-27T00:12:53;11.60;99.90
15355;DHT22;7777;52.254;9.618;2022-09-27T00:15:19;11.60;99.90
15355;DHT22;7777;52.254;9.618;2022-09-27T00:17:45;11.70;99.90
15355;DHT22;7777;52.254;9.618;2022-09-27T00:20:11;11.70;99.90
15355;DHT22;7777;52.254;9.618;2022-09-27T00:22:40;11.70;99.90
15355;DHT22;7777;52.254;9.618;2022-09-27T00:25:06;11.60;99.90
15355;DHT22;7777;52.254;9.618;2022-09-27T00:27:32;11.70;99.90
15355;DHT22;7777;52.254;9.618;2022-09-27T00:29:58;11.70;99.90
15355;DHT22;7777;52.254;9.618;2022-09-27T00:32:23;11.60;99.90
15355;DHT22;7777;52.254;9.618;2022-09-27T00:34:49;11.60;99.90
15355;DHT22;7777;52.254;9.618;2022-09-27T00:37:15;11.60;99.90
15355;DHT22;7777;52.254;9.618;2022-09-27T00:39:41;11.70;99.90
15355;DHT22;7777;52.254;9.618;2022-09-27T00:42:12;11.70;99.90
15355;DHT22;7777;52.254;9.618;2022-09-27T00:49:59;11.60;99.90
15355;DHT22;7777;52.254;9.618;2022-09-27T00:52:44;11.60;99.90
15355;DHT22;7777;52.254;9.618;2022-09-27T00:55:19;11.60;99.90
15355;DHT22;7777;52.254;9.618;2022-09-27T00:57:49;11.60;99.90
15355;DHT22;7777;52.254;9.618;2022-09-27T01:00:15;11.60;99.90
15355;DHT22;7777;52.254;9.618;2022-09-27T01:02:52;11.60;99.90
15355;DHT22;7777;52.254;9.618;2022-09-27T01:05:21;11.60;99.90
15355;DHT22;7777;52.254;9.618;2022-09-27T01:07:49;11.60;99.90
15355;DHT22;7777;52.254;9.618;2022-09-27T01:10:16;11.50;99.90
15355;DHT22;7777;52.254;9.618;2022-09-27T01:13:10;11.60;99.90
15355;DHT22;7777;52.254;9.618;2022-09-27T01:18:52;11.50;99.90
15355;DHT22;7777;52.254;9.618;2022-09-27T01:21:44;11.50;99.90
15355;DHT22;7777;52.254;9.618;2022-09-27T01:33:05;11.50;99.90
15355;DHT22;7777;52.254;9.618;2022-09-27T01:38:46;11.50;99.90
15355;DHT22;7777;52.254;9.618;2022-09-27T01:44:05;11.40;99.90
15355;DHT22;7777;52.254;9.618;2022-09-27T01:46:38;11.40;99.90
15355;DHT22;7777;52.254;9.618;2022-09-27T01:49:16;11.50;99.90
15355;DHT22;7777;52.254;9.618;2022-09-27T01:51:49;11.50;99.90
15355;DHT22;7777;52.254;9.618;2022-09-27T01:54:23;11.50;99.90
15355;DHT22;7777;52.254;9.618;2022-09-27T01:56:54;11.50;99.90
15355;DHT22;7777;52.254;9.618;2022-09-27T01:59:34;11.50;99.90
15355;DHT22;7777;52.254;9.618;2022-09-27T02:02:07;11.50;99.90
15355;DHT22;7777;52.254;9.618;2022-09-27T02:04:37;11.50;99.90
15355;DHT22;7777;52.254;9.618;2022-09-27T02:07:19;11.50;99.90
15355;DHT22;7777;52.254;9.618;2022-09-27T02:10:00;11.50;99.90
15355;DHT22;7777;52.254;9.618;2022-09-27T02:12:31;11.50;99.90
15355;DHT22;7777;52.254;9.618;2022-09-27T02:15:07;11.50;99.90
15355;DHT22;7777;52.254;9.618;2022-09-27T02:17:46;11.50;99.90
15355;DHT22;7777;52.254;9.618;2022-09-27T02:20:35;11.50;99.90
15355;DHT22;7777;52.254;9.618;2022-09-27T02:23:23;11.50;99.90
15355;DHT22;7777;52.254;9.618;2022-09-27T02:29:06;11.50;99.90
15355;DHT22;7777;52.254;9.618;2022-09-27T02:31:35;11.50;99.90
15355;DHT22;7777;52.254;9.618;2022-09-27T02:34:15;11.50;99.90
15355;DHT22;7777;52.254;9.618;2022-09-27T02:36:44;11.50;99.90
15355;DHT22;7777;52.254;9.618;2022-09-27T02:39:10;11.50;99.90
15355;DHT22;7777;52.254;9.618;2022-09-27T02:41:36;11.50;99.90
15355;DHT22;7777;52.254;9.618;2022-09-27T02:44:07;11.50;99.90
15355;DHT22;7777;52.254;9.618;2022-09-27T02:46:38;11.50;99.90
15355;DHT22;7777;52.254;9.618;2022-09-27T02:49:30;11.50;99.90
15355;DHT22;7777;52.254;9.618;2022-09-27T02:55:23;11.50;99.90
15355;DHT22;7777;52.254;9.618;2022-09-27T03:04:37;11.50;99.90
15355;DHT22;7777;52.254;9.618;2022-09-27T03:07:06;11.50;99.90
15355;DHT22;7777;52.254;9.618;2022-09-27T03:09:44;11.50;99.90
15355;DHT22;7777;52.254;9.618;2022-09-27T03:12:12;11.50;99.90
15355;DHT22;7777;52.254;9.618;2022-09-27T03:14:39;11.50;99.90
15355;DHT22;7777;52.254;9.618;2022-09-27T03:17:05;11.50;99.90
15355;DHT22;7777;52.254;9.618;2022-09-27T03:19:31;11.50;99.90
15355;DHT22;7777;52.254;9.618;2022-09-27T03:21:57;11.50;99.90
15355;DHT22;7777;52.254;9.618;2022-09-27T03:24:22;11.50;99.90
15355;DHT22;7777;52.254;9.618;2022-09-27T03:26:49;11.60;99.90
15355;DHT22;7777;52.254;9.618;2022-09-27T03:29:14;11.60;99.90
15355;DHT22;7777;52.254;9.618;2022-09-27T03:31:41;11.60;99.90
15355;DHT22;7777;52.254;9.618;2022-09-27T03:34:07;11.60;99.90
15355;DHT22;7777;52.254;9.618;2022-09-27T03:36:32;11.60;99.90
15355;DHT22;7777;52.254;9.618;2022-09-27T03:38:58;11.60;99.90
15355;DHT22;7777;52.254;9.618;2022-09-27T03:41:24;11.60;99.90
15355;DHT22;7777;52.254;9.618;2022-09-27T03:43:50;11.60;99.90
15355;DHT22;7777;52.254;9.618;2022-09-27T03:46:15;11.60;99.90
15355;DHT22;7777;52.254;9.618;2022-09-27T03:48:41;11.60;99.90
15355;DHT22;7777;52.254;9.618;2022-09-27T03:51:07;11.60;99.90
15355;DHT22;7777;52.254;9.618;2022-09-27T03:53:36;11.60;99.90
15355;DHT22;7777;52.254;9.618;2022-09-27T03:56:02;11.60;99.90
15355;DHT22;7777;52.254;9.618;2022-09-27T03:58:28;11.60;99.90
15355;DHT22;7777;52.254;9.618;2022-09-27T04:00:53;11.70;99.90
15355;DHT22;7777;52.254;9.618;2022-09-27T04:03:19;11.70;99.90
15355;DHT22;7777;52.254;9.618;2022-09-27T04:05:45;11.60;99.90
15355;DHT22;7777;52.254;9.618;2022-09-27T04:08:11;11.60;99.90
15355;DHT22;7777;52.254;9.618;2022-09-27T04:10:38;11.70;99.90
15355;DHT22;7777;52.254;9.618;2022-09-27T04:13:04;11.60;99.90
15355;DHT22;7777;52.254;9.618;2022-09-27T04:15:30;11.60;99.90
15355;DHT22;7777;52.254;9.618;2022-09-27T04:17:55;11.70;99.90
15355;DHT22;7777;52.254;9.618;2022-09-27T04:20:21;11.60;99.90
15355;DHT22;7777;52.254;9.618;2022-09-27T04:22:47;11.60;99.90
15355;DHT22;7777;52.254;9.618;2022-09-27T04:25:13;11.60;99.90
15355;DHT22;7777;52.254;9.618;2022-09-27T04:27:43;11.60;99.90
15355;DHT22;7777;52.254;9.618;2022-09-27T04:30:11;11.60;99.90
15355;DHT22;7777;52.254;9.618;2022-09-27T04:32:44;11.60;99.90
15355;DHT22;7777;52.254;9.618;2022-09-27T04:35:10;11.60;99.90
15355;DHT22;7777;52.254;9.618;2022-09-27T04:37:56;11.60;99.90
15355;DHT22;7777;52.254;9.618;2022-09-27T04:40:22;11.60;99.90
15355;DHT22;7777;52.254;9.618;2022-09-27T04:42:49;11.50;99.90
15355;DHT22;7777;52.254;9.618;2022-09-27T04:45:16;11.50;99.90
15355;DHT22;7777;52.254;9.618;2022-09-27T04:47:47;11.50;99.90
15355;DHT22;7777;52.254;9.618;2022-09-27T04:50:15;11.50;99.90
15355;DHT22;7777;52.254;9.618;2022-09-27T04:52:42;11.50;99.90
15355;DHT22;7777;52.254;9.618;2022-09-27T04:55:09;11.50;99.90
15355;DHT22;7777;52.254;9.618;2022-09-27T04:57:35;11.50;99.90
15355;DHT22;7777;52.254;9.618;2022-09-27T05:00:02;11.40;99.90
15355;DHT22;7777;52.254;9.618;2022-09-27T05:02:29;11.40;99.90
15355;DHT22;7777;52.254;9.618;2022-09-27T05:04:55;11.40;99.90
15355;DHT22;7777;52.254;9.618;2022-09-27T05:07:26;11.40;99.90
15355;DHT22;7777;52.254;9.618;2022-09-27T05:09:53;11.40;99.90
15355;DHT22;7777;52.254;9.618;2022-09-27T05:12:19;11.40;99.90
15355;DHT22;7777;52.254;9.618;2022-09-27T05:14:45;11.40;99.90
15355;DHT22;7777;52.254;9.618;2022-09-27T05:17:12;11.40;99.90
15355;DHT22;7777;52.254;9.618;2022-09-27T05:19:38;11.40;99.90
15355;DHT22;7777;52.254;9.618;2022-09-27T05:22:07;11.40;99.90
15355;DHT22;7777;52.254;9.618;2022-09-27T05:24:33;11.40;99.90
15355;DHT22;7777;52.254;9.618;2022-09-27T05:27:00;11.40;99.90
15355;DHT22;7777;52.254;9.618;2022-09-27T05:29:26;11.30;99.90
15355;DHT22;7777;52.254;9.618;2022-09-27T05:31:52;11.30;99.90
15355;DHT22;7777;52.254;9.618;2022-09-27T05:34:18;11.30;99.90
15355;DHT22;7777;52.254;9.618;2022-09-27T05:36:47;11.40;99.90
15355;DHT22;7777;52.254;9.618;2022-09-27T05:39:13;11.30;99.90
15355;DHT22;7777;52.254;9.618;2022-09-27T05:41:41;11.30;99.90
15355;DHT22;7777;52.254;9.618;2022-09-27T05:44:07;11.30;99.90
15355;DHT22;7777;52.254;9.618;2022-09-27T05:46:33;11.40;99.90
15355;DHT22;7777;52.254;9.618;2022-09-27T05:48:59;11.30;99.90
15355;DHT22;7777;52.254;9.618;2022-09-27T05:51:24;11.40;99.90
15355;DHT22;7777;52.254;9.618;2022-09-27T05:53:50;11.30;99.90
15355;DHT22;7777;52.254;9.618;2022-09-27T05:56:16;11.30;99.90
15355;DHT22;7777;52.254;9.618;2022-09-27T05:58:42;11.40;99.90
15355;DHT22;7777;52.254;9.618;2022-09-27T06:01:08;11.30;99.90
15355;DHT22;7777;52.254;9.618;2022-09-27T06:03:35;11.30;99.90
15355;DHT22;7777;52.254;9.618;2022-09-27T06:06:02;11.40;99.90
15355;DHT22;7777;52.254;9.618;2022-09-27T06:08:33;11.40;99.90
15355;DHT22;7777;52.254;9.618;2022-09-27T06:11:01;11.30;99.90
15355;DHT22;7777;52.254;9.618;2022-09-27T06:13:29;11.30;99.90
15355;DHT22;7777;52.254;9.618;2022-09-27T06:15:55;11.30;99.90
15355;DHT22;7777;52.254;9.618;2022-09-27T06:18:20;11.30;99.90
15355;DHT22;7777;52.254;9.618;2022-09-27T06:20:46;11.30;99.90
15355;DHT22;7777;52.254;9.618;2022-09-27T06:23:15;11.30;99.90
15355;DHT22;7777;52.254;9.618;2022-09-27T06:25:43;11.30;99.90
15355;DHT22;7777;52.254;9.618;2022-09-27T06:28:09;11.30;99.90
15355;DHT22;7777;52.254;9.618;2022-09-27T06:30:46;11.30;99.90
15355;DHT22;7777;52.254;9.618;2022-09-27T06:33:18;11.30;99.90
15355;DHT22;7777;52.254;9.618;2022-09-27T06:35:45;11.30;99.90
15355;DHT22;7777;52.254;9.618;2022-09-27T06:38:13;11.30;99.90
15355;DHT22;7777;52.254;9.618;2022-09-27T06:40:42;11.30;99.90
15355;DHT22;7777;52.254;9.618;2022-09-27T06:43:12;11.20;99.90
15355;DHT22;7777;52.254;9.618;2022-09-27T06:45:39;11.20;99.90
15355;DHT22;7777;52.254;9.618;2022-09-27T06:48:07;11.20;99.90
15355;DHT22;7777;52.254;9.618;2022-09-27T06:50:35;11.20;99.90
15355;DHT22;7777;52.254;9.618;2022-09-27T06:53:06;11.20;99.90
15355;DHT22;7777;52.254;9.618;2022-09-27T06:55:35;11.20;99.90
15355;DHT22;7777;52.254;9.618;2022-09-27T06:58:01;11.20;99.90
15355;DHT22;7777;52.254;9.618;2022-09-27T07:00:49;11.20;99.90
15355;DHT22;7777;52.254;9.618;2022-09-27T07:03:16;11.20;99.90
15355;DHT22;7777;52.254;9.618;2022-09-27T07:05:53;11.20;99.90
15355;DHT22;7777;52.254;9.618;2022-09-27T07:08:21;11.20;99.90
15355;DHT22;7777;52.254;9.618;2022-09-27T07:10:49;11.20;99.90
15355;DHT22;7777;52.254;9.618;2022-09-27T07:13:15;11.20;99.90
15355;DHT22;7777;52.254;9.618;2022-09-27T07:15:41;11.20;99.90
15355;DHT22;7777;52.254;9.618;2022-09-27T07:18:07;11.20;99.90
15355;DHT22;7777;52.254;9.618;2022-09-27T07:20:33;11.20;99.90
15355;DHT22;7777;52.254;9.618;2022-09-27T07:23:01;11.20;99.90
15355;DHT22;7777;52.254;9.618;2022-09-27T07:25:27;11.20;99.90
15355;DHT22;7777;52.254;9.618;2022-09-27T07:27:53;11.20;99.90
15355;DHT22;7777;52.254;9.618;2022-09-27T07:30:19;11.20;99.90
15355;DHT22;7777;52.254;9.618;2022-09-27T07:32:46;11.30;99.90
15355;DHT22;7777;52.254;9.618;2022-09-27T07:35:12;11.20;99.90
15355;DHT22;7777;52.254;9.618;2022-09-27T07:37:40;11.20;99.90
15355;DHT22;7777;52.254;9.618;2022-09-27T07:40:07;11.30;99.90
15355;DHT22;7777;52.254;9.618;2022-09-27T07:42:34;11.30;99.90
15355;DHT22;7777;52.254;9.618;2022-09-27T07:45:04;11.30;99.90
15355;DHT22;7777;52.254;9.618;2022-09-27T07:47:31;11.30;99.90
15355;DHT22;7777;52.254;9.618;2022-09-27T07:49:57;11.30;99.90
15355;DHT22;7777;52.254;9.618;2022-09-27T07:52:23;11.30;99.90
15355;DHT22;7777;52.254;9.618;2022-09-27T07:54:48;11.30;99.90
15355;DHT22;7777;52.254;9.618;2022-09-27T07:57:15;11.30;99.90
15355;DHT22;7777;52.254;9.618;2022-09-27T07:59:41;11.30;99.90
15355;DHT22;7777;52.254;9.618;2022-09-27T08:02:13;11.20;99.90
15355;DHT22;7777;52.254;9.618;2022-09-27T08:04:40;11.30;99.90
15355;DHT22;7777;52.254;9.618;2022-09-27T08:07:11;11.30;99.90
15355;DHT22;7777;52.254;9.618;2022-09-27T08:09:37;11.20;99.90
15355;DHT22;7777;52.254;9.618;2022-09-27T08:12:03;11.30;99.90
15355;DHT22;7777;52.254;9.618;2022-09-27T08:14:29;11.30;99.90
15355;DHT22;7777;52.254;9.618;2022-09-27T08:16:55;11.30;99.90
15355;DHT22;7777;52.254;9.618;2022-09-27T08:19:22;11.30;99.90
15355;DHT22;7777;52.254;9.618;2022-09-27T08:21:47;11.30;99.90
15355;DHT22;7777;52.254;9.618;2022-09-27T08:24:16;11.30;99.90
15355;DHT22;7777;52.254;9.618;2022-09-27T08:26:41;11.40;99.90
15355;DHT22;7777;52.254;9.618;2022-09-27T08:29:07;11.40;99.90
15355;DHT22;7777;52.254;9.618;2022-09-27T08:31:33;11.40;99.90
15355;DHT22;7777;52.254;9.618;2022-09-27T08:33:59;11.40;99.90
15355;DHT22;7777;52.254;9.618;2022-09-27T08:36:26;11.40;99.90
15355;DHT22;7777;52.254;9.618;2022-09-27T08:38:52;11.50;99.90
15355;DHT22;7777;52.254;9.618;2022-09-27T08:47:30;11.50;99.90
15355;DHT22;7777;52.254;9.618;2022-09-27T08:50:08;11.50;99.90
15355;DHT22;7777;52.254;9.618;2022-09-27T08:52:46;11.50;99.90
15355;DHT22;7777;52.254;9.618;2022-09-27T08:58:12;11.50;99.90
15355;DHT22;7777;52.254;9.618;2022-09-27T09:00:41;11.50;99.90
15355;DHT22;7777;52.254;9.618;2022-09-27T09:03:19;11.60;99.90
15355;DHT22;7777;52.254;9.618;2022-09-27T09:05:58;11.60;99.90
15355;DHT22;7777;52.254;9.618;2022-09-27T09:11:39;11.60;99.90
15355;DHT22;7777;52.254;9.618;2022-09-27T09:24:22;11.70;99.90
15355;DHT22;7777;52.254;9.618;2022-09-27T09:29:54;11.80;99.90
15355;DHT22;7777;52.254;9.618;2022-09-27T09:33:07;11.80;99.90
15355;DHT22;7777;52.254;9.618;2022-09-27T09:39:17;11.90;99.90
15355;DHT22;7777;52.254;9.618;2022-09-27T09:44:54;11.90;99.90
15355;DHT22;7777;52.254;9.618;2022-09-27T09:47:26;12.00;99.90
15355;DHT22;7777;52.254;9.618;2022-09-27T09:50:01;12.00;99.90
15355;DHT22;7777;52.254;9.618;2022-09-27T09:52:39;12.00;99.90
15355;DHT22;7777;52.254;9.618;2022-09-27T09:55:30;12.10;99.90
15355;DHT22;7777;52.254;9.618;2022-09-27T09:58:20;12.20;99.90
15355;DHT22;7777;52.254;9.618;2022-09-27T10:00:50;12.10;99.90
15355;DHT22;7777;52.254;9.618;2022-09-27T10:03:17;12.20;99.90
15355;DHT22;7777;52.254;9.618;2022-09-27T10:05:44;12.20;99.90
15355;DHT22;7777;52.254;9.618;2022-09-27T10:08:20;12.20;99.90
15355;DHT22;7777;52.254;9.618;2022-09-27T10:10:47;12.30;99.90
15355;DHT22;7777;52.254;9.618;2022-09-27T10:13:17;12.30;99.90
15355;DHT22;7777;52.254;9.618;2022-09-27T10:15:59;12.40;99.90
15355;DHT22;7777;52.254;9.618;2022-09-27T10:18:37;12.40;99.90
15355;DHT22;7777;52.254;9.618;2022-09-27T10:21:07;12.50;99.90
15355;DHT22;7777;52.254;9.618;2022-09-27T10:24:04;12.50;99.90
15355;DHT22;7777;52.254;9.618;2022-09-27T10:26:31;12.50;99.90
15355;DHT22;7777;52.254;9.618;2022-09-27T10:28:57;12.60;99.90
15355;DHT22;7777;52.254;9.618;2022-09-27T10:31:45;12.60;99.90
15355;DHT22;7777;52.254;9.618;2022-09-27T10:34:23;12.70;99.90
15355;DHT22;7777;52.254;9.618;2022-09-27T10:37:16;12.80;99.90
15355;DHT22;7777;52.254;9.618;2022-09-27T10:39:45;13.00;99.90
15355;DHT22;7777;52.254;9.618;2022-09-27T10:42:41;13.10;99.90
15355;DHT22;7777;52.254;9.618;2022-09-27T10:45:31;13.20;99.90
15355;DHT22;7777;52.254;9.618;2022-09-27T10:48:01;13.30;99.90
15355;DHT22;7777;52.254;9.618;2022-09-27T10:50:29;13.30;99.90
15355;DHT22;7777;52.254;9.618;2022-09-27T10:53:03;13.40;99.90
15355;DHT22;7777;52.254;9.618;2022-09-27T10:55:49;13.40;99.90
15355;DHT22;7777;52.254;9.618;2022-09-27T10:58:19;13.40;99.90
15355;DHT22;7777;52.254;9.618;2022-09-27T11:00:56;13.40;99.90
15355;DHT22;7777;52.254;9.618;2022-09-27T11:03:29;13.40;99.90
15355;DHT22;7777;52.254;9.618;2022-09-27T11:05:56;13.40;99.90
15355;DHT22;7777;52.254;9.618;2022-09-27T11:08:32;13.40;99.90
15355;DHT22;7777;52.254;9.618;2022-09-27T11:11:02;13.30;99.90
15355;DHT22;7777;52.254;9.618;2022-09-27T11:13:31;13.20;99.90
15355;DHT22;7777;52.254;9.618;2022-09-27T11:16:30;13.00;99.90
15355;DHT22;7777;52.254;9.618;2022-09-27T11:19:32;12.90;99.90
15355;DHT22;7777;52.254;9.618;2022-09-27T11:22:25;12.80;99.90
15355;DHT22;7777;52.254;9.618;2022-09-27T11:25:31;12.80;99.90
15355;DHT22;7777;52.254;9.618;2022-09-27T11:28:17;12.80;99.90
15355;DHT22;7777;52.254;9.618;2022-09-27T11:31:28;12.80;99.90
15355;DHT22;7777;52.254;9.618;2022-09-27T11:34:25;12.80;99.90
15355;DHT22;7777;52.254;9.618;2022-09-27T11:43:04;12.60;99.90
15355;DHT22;7777;52.254;9.618;2022-09-27T11:45:53;12.50;99.90
15355;DHT22;7777;52.254;9.618;2022-09-27T11:57:23;12.40;99.90
15355;DHT22;7777;52.254;9.618;2022-09-27T12:00:07;12.40;99.90
15355;DHT22;7777;52.254;9.618;2022-09-27T12:06:29;12.50;99.90
15355;DHT22;7777;52.254;9.618;2022-09-27T12:11:45;12.60;99.90
15355;DHT22;7777;52.254;9.618;2022-09-27T12:14:34;12.60;99.90
15355;DHT22;7777;52.254;9.618;2022-09-27T12:17:05;12.60;99.90
15355;DHT22;7777;52.254;9.618;2022-09-27T12:19:36;12.60;99.90
15355;DHT22;7777;52.254;9.618;2022-09-27T12:22:05;12.60;99.90
15355;DHT22;7777;52.254;9.618;2022-09-27T12:24:34;12.50;99.90
15355;DHT22;7777;52.254;9.618;2022-09-27T12:27:55;12.40;99.90
15355;DHT22;7777;52.254;9.618;2022-09-27T12:30:03;12.30;99.90
15355;DHT22;7777;52.254;9.618;2022-09-27T12:35:33;12.10;99.90
15355;DHT22;7777;52.254;9.618;2022-09-27T12:40:50;11.90;99.90
15355;DHT22;7777;52.254;9.618;2022-09-27T12:43:22;11.80;99.90
15355;DHT22;7777;52.254;9.618;2022-09-27T12:51:40;11.60;99.90
15355;DHT22;7777;52.254;9.618;2022-09-27T12:56:58;11.50;99.90
15355;DHT22;7777;52.254;9.618;2022-09-27T12:59:56;11.40;99.90
15355;DHT22;7777;52.254;9.618;2022-09-27T13:02:51;11.40;99.90
15355;DHT22;7777;52.254;9.618;2022-09-27T13:09:26;11.30;99.90
15355;DHT22;7777;52.254;9.618;2022-09-27T13:12:10;11.20;99.90
15355;DHT22;7777;52.254;9.618;2022-09-27T13:22:53;10.80;99.90
15355;DHT22;7777;52.254;9.618;2022-09-27T13:30:58;10.70;99.90
15355;DHT22;7777;52.254;9.618;2022-09-27T13:33:46;10.70;99.90
15355;DHT22;7777;52.254;9.618;2022-09-27T13:44:18;10.50;99.90
15355;DHT22;7777;52.254;9.618;2022-09-27T13:49:37;10.50;99.90
15355;DHT22;7777;52.254;9.618;2022-09-27T13:54:53;10.40;99.90
15355;DHT22;7777;52.254;9.618;2022-09-27T13:57:45;10.40;99.90
15355;DHT22;7777;52.254;9.618;2022-09-27T14:00:26;10.40;99.90
15355;DHT22;7777;52.254;9.618;2022-09-27T14:03:13;10.40;99.90
15355;DHT22;7777;52.254;9.618;2022-09-27T14:05:46;10.40;99.90
15355;DHT22;7777;52.254;9.618;2022-09-27T14:08:26;10.40;99.90
15355;DHT22;7777;52.254;9.618;2022-09-27T14:10:55;10.40;99.90
15355;DHT22;7777;52.254;9.618;2022-09-27T14:13:23;10.40;99.90
15355;DHT22;7777;52.254;9.618;2022-09-27T14:15:51;10.40;99.90
15355;DHT22;7777;52.254;9.618;2022-09-27T14:18:19;10.40;99.90
15355;DHT22;7777;52.254;9.618;2022-09-27T14:20:49;10.50;99.90
15355;DHT22;7777;52.254;9.618;2022-09-27T14:23:25;10.50;99.90
15355;DHT22;7777;52.254;9.618;2022-09-27T14:25:53;10.60;99.90
15355;DHT22;7777;52.254;9.618;2022-09-27T14:28:23;10.60;99.90
15355;DHT22;7777;52.254;9.618;2022-09-27T14:33:35;10.70;99.90
15355;DHT22;7777;52.254;9.618;2022-09-27T14:36:01;10.70;99.90
15355;DHT22;7777;52.254;9.618;2022-09-27T14:38:46;10.70;99.90
15355;DHT22;7777;52.254;9.618;2022-09-27T14:41:13;10.80;99.90
15355;DHT22;7777;52.254;9.618;2022-09-27T14:43:45;10.80;99.90
15355;DHT22;7777;52.254;9.618;2022-09-27T14:46:41;10.80;99.90
15355;DHT22;7777;52.254;9.618;2022-09-27T14:49:25;10.80;99.90
15355;DHT22;7777;52.254;9.618;2022-09-27T14:51:55;10.80;99.90
15355;DHT22;7777;52.254;9.618;2022-09-27T14:54:27;10.80;99.90
15355;DHT22;7777;52.254;9.618;2022-09-27T14:56:55;10.80;99.90
15355;DHT22;7777;52.254;9.618;2022-09-27T14:59:27;10.70;99.90
15355;DHT22;7777;52.254;9.618;2022-09-27T15:01:58;10.70;99.90
15355;DHT22;7777;52.254;9.618;2022-09-27T15:04:27;10.70;99.90
15355;DHT22;7777;52.254;9.618;2022-09-27T15:06:56;10.70;99.90
15355;DHT22;7777;52.254;9.618;2022-09-27T15:09:23;10.60;99.90
15355;DHT22;7777;52.254;9.618;2022-09-27T15:11:55;10.60;99.90
15355;DHT22;7777;52.254;9.618;2022-09-27T15:14:25;10.60;99.90
15355;DHT22;7777;52.254;9.618;2022-09-27T15:16:54;10.60;99.90
15355;DHT22;7777;52.254;9.618;2022-09-27T15:19:25;10.50;99.90
15355;DHT22;7777;52.254;9.618;2022-09-27T15:21:52;10.50;99.90
15355;DHT22;7777;52.254;9.618;2022-09-27T15:24:36;10.50;99.90
15355;DHT22;7777;52.254;9.618;2022-09-27T15:27:13;10.50;99.90
15355;DHT22;7777;52.254;9.618;2022-09-27T15:29:39;10.40;99.90
15355;DHT22;7777;52.254;9.618;2022-09-27T15:32:06;10.40;99.90
15355;DHT22;7777;52.254;9.618;2022-09-27T15:34:37;10.40;99.90
15355;DHT22;7777;52.254;9.618;2022-09-27T15:37:03;10.40;99.90
15355;DHT22;7777;52.254;9.618;2022-09-27T15:39:41;10.40;99.90
15355;DHT22;7777;52.254;9.618;2022-09-27T15:42:11;10.40;99.90
15355;DHT22;7777;52.254;9.618;2022-09-27T15:44:43;10.40;99.90
15355;DHT22;7777;52.254;9.618;2022-09-27T15:52:50;10.50;99.90
15355;DHT22;7777;52.254;9.618;2022-09-27T15:55:22;10.50;99.90
15355;DHT22;7777;52.254;9.618;2022-09-27T15:58:19;10.50;99.90
15355;DHT22;7777;52.254;9.618;2022-09-27T16:00:56;10.50;99.90
15355;DHT22;7777;52.254;9.618;2022-09-27T16:03:27;10.60;99.90
15355;DHT22;7777;52.254;9.618;2022-09-27T16:05:58;10.60;99.90
15355;DHT22;7777;52.254;9.618;2022-09-27T16:08:26;10.60;99.90
15355;DHT22;7777;52.254;9.618;2022-09-27T16:10:54;10.60;99.90
15355;DHT22;7777;52.254;9.618;2022-09-27T16:13:22;10.60;99.90
15355;DHT22;7777;52.254;9.618;2022-09-27T16:15:48;10.60;99.90
15355;DHT22;7777;52.254;9.618;2022-09-27T16:18:15;10.60;99.90
15355;DHT22;7777;52.254;9.618;2022-09-27T16:20:41;10.50;99.90
15355;DHT22;7777;52.254;9.618;2022-09-27T16:23:07;10.60;99.90
15355;DHT22;7777;52.254;9.618;2022-09-27T16:25:32;10.60;99.90
15355;DHT22;7777;52.254;9.618;2022-09-27T16:28:03;10.60;99.90
15355;DHT22;7777;52.254;9.618;2022-09-27T16:30:30;10.60;99.90
15355;DHT22;7777;52.254;9.618;2022-09-27T16:32:57;10.60;99.90
15355;DHT22;7777;52.254;9.618;2022-09-27T16:35:24;10.60;99.90
15355;DHT22;7777;52.254;9.618;2022-09-27T16:37:50;10.50;99.90
15355;DHT22;7777;52.254;9.618;2022-09-27T16:40:16;10.50;99.90
15355;DHT22;7777;52.254;9.618;2022-09-27T16:42:49;10.50;99.90
15355;DHT22;7777;52.254;9.618;2022-09-27T16:45:15;10.60;99.90
15355;DHT22;7777;52.254;9.618;2022-09-27T16:47:41;10.50;99.90
15355;DHT22;7777;52.254;9.618;2022-09-27T16:50:11;10.50;99.90
15355;DHT22;7777;52.254;9.618;2022-09-27T16:53:13;10.50;99.90
15355;DHT22;7777;52.254;9.618;2022-09-27T16:55:39;10.50;99.90
15355;DHT22;7777;52.254;9.618;2022-09-27T16:58:04;10.50;99.90
15355;DHT22;7777;52.254;9.618;2022-09-27T17:00:32;10.50;99.90
15355;DHT22;7777;52.254;9.618;2022-09-27T17:02:59;10.50;99.90
15355;DHT22;7777;52.254;9.618;2022-09-27T17:05:25;10.50;99.90
15355;DHT22;7777;52.254;9.618;2022-09-27T17:07:54;10.40;99.90
15355;DHT22;7777;52.254;9.618;2022-09-27T17:10:20;10.40;99.90
15355;DHT22;7777;52.254;9.618;2022-09-27T17:12:47;10.40;99.90
15355;DHT22;7777;52.254;9.618;2022-09-27T17:15:15;10.40;99.90
15355;DHT22;7777;52.254;9.618;2022-09-27T17:17:41;10.30;99.90
15355;DHT22;7777;52.254;9.618;2022-09-27T17:20:09;10.40;99.90
15355;DHT22;7777;52.254;9.618;2022-09-27T17:22:35;10.40;99.90
15355;DHT22;7777;52.254;9.618;2022-09-27T17:25:01;10.30;99.90
15355;DHT22;7777;52.254;9.618;2022-09-27T17:27:27;10.30;99.90
15355;DHT22;7777;52.254;9.618;2022-09-27T17:29:53;10.30;99.90
15355;DHT22;7777;52.254;9.618;2022-09-27T17:32:20;10.30;99.90
15355;DHT22;7777;52.254;9.618;2022-09-27T17:34:46;10.30;99.90
15355;DHT22;7777;52.254;9.618;2022-09-27T17:37:12;10.20;99.90
15355;DHT22;7777;52.254;9.618;2022-09-27T17:39:38;10.30;99.90
15355;DHT22;7777;52.254;9.618;2022-09-27T17:42:04;10.30;99.90
15355;DHT22;7777;52.254;9.618;2022-09-27T17:44:31;10.30;99.90
15355;DHT22;7777;52.254;9.618;2022-09-27T17:46:56;10.20;99.90
15355;DHT22;7777;52.254;9.618;2022-09-27T17:49:41;10.20;99.90
15355;DHT22;7777;52.254;9.618;2022-09-27T17:52:24;10.20;99.90
15355;DHT22;7777;52.254;9.618;2022-09-27T17:54:51;10.20;99.90
15355;DHT22;7777;52.254;9.618;2022-09-27T17:57:21;10.20;99.90
15355;DHT22;7777;52.254;9.618;2022-09-27T17:59:47;10.20;99.90
15355;DHT22;7777;52.254;9.618;2022-09-27T18:02:13;10.20;99.90
15355;DHT22;7777;52.254;9.618;2022-09-27T18:04:39;10.20;99.90
15355;DHT22;7777;52.254;9.618;2022-09-27T18:07:04;10.20;99.90
15355;DHT22;7777;52.254;9.618;2022-09-27T18:09:30;10.20;99.90
15355;DHT22;7777;52.254;9.618;2022-09-27T18:11:56;10.20;99.90
15355;DHT22;7777;52.254;9.618;2022-09-27T18:14:24;10.20;99.90
15355;DHT22;7777;52.254;9.618;2022-09-27T18:16:54;10.10;99.90
15355;DHT22;7777;52.254;9.618;2022-09-27T18:19:22;10.10;99.90
15355;DHT22;7777;52.254;9.618;2022-09-27T18:21:49;10.10;99.90
15355;DHT22;7777;52.254;9.618;2022-09-27T18:24:15;10.10;99.90
15355;DHT22;7777;52.254;9.618;2022-09-27T18:26:42;10.10;99.90
15355;DHT22;7777;52.254;9.618;2022-09-27T18:29:14;10.10;99.90
15355;DHT22;7777;52.254;9.618;2022-09-27T18:31:41;10.10;99.90
15355;DHT22;7777;52.254;9.618;2022-09-27T18:34:07;10.20;99.90